Item Display Status Serial CT Sensor

Mooring Depth: 1 m

 

Deployed Sensor

  • Serial Number: 14625
  • NDBC Property Number: 40637
  • Start Date: 1/25/2017 (09:25:20 Z)
  • End Date: 4/20/2018 (02:05:00 Z)
Water Temperature [°C]     6 entries per hour
Showing data from 4/20/2018 (02:00:00 Z) to 4/19/2018 (00:00:01 Z)
Previous Next [ Day | 3-Days | 7-Days ]
First Last
Prev [ Day | 3-Days | 7-Days ] Next
First Last

Start Time:     :
End Time:     :     
Time (in GMT) :00 :50 :40 :30 :20 :10
Previous Next [ Day | 3-Days | 7-Days ]
First Last
Prev [ Day | 3-Days | 7-Days ] Next
First Last


123 => good data
MM => data is determined as missing
-- => data not received/configured
Back to Top Back to Top
4/20/2018 02:00 to 1:10 26.626 26.579 26.652 26.674 26.695 26.621
4/20/2018 01:00 to 0:10 26.693 26.706 26.664 26.697 26.696 26.779
4/20/2018 00:00 to 23:10 26.753 26.858 26.768 26.879 26.865 26.864
4/19/2018 23:00 to 22:10 26.868 26.892 26.901 26.841 26.927 26.933
4/19/2018 22:00 to 21:10 26.910 26.986 26.613 26.956 26.946 26.953
4/19/2018 21:00 to 20:10 26.921 26.886 26.880 26.863 26.848 26.779
4/19/2018 20:00 to 19:10 26.786 26.781 26.749 26.773 26.752 26.734
4/19/2018 19:00 to 18:10 26.703 26.674 26.610 26.593 26.597 26.582
4/19/2018 18:00 to 17:10 26.606 26.559 26.584 26.470 26.496 26.504
4/19/2018 17:00 to 16:10 26.538 26.476 26.433 26.431 26.395 26.389
4/19/2018 16:00 to 15:10 26.385 26.370 26.332 26.317 26.333 26.321
4/19/2018 15:00 to 14:10 26.304 26.300 26.296 26.295 26.285 26.290
4/19/2018 14:00 to 13:10 26.291 26.292 26.286 26.288 26.285 26.288
4/19/2018 13:00 to 12:10 26.288 26.284 26.280 26.300 26.307 26.321
4/19/2018 12:00 to 11:10 26.318 26.312 26.314 26.314 26.319 26.303
4/19/2018 11:00 to 10:10 26.288 26.306 26.296 26.299 26.302 26.300
4/19/2018 10:00 to 9:10 26.306 26.311 26.315 26.317 26.321 26.326
4/19/2018 09:00 to 8:10 26.327 26.333 26.340 26.347 26.351 26.362
4/19/2018 08:00 to 7:10 26.364 26.356 26.373 26.380 26.391 26.390
4/19/2018 07:00 to 6:10 26.405 26.430 26.433 26.444 26.457 26.467
4/19/2018 06:00 to 5:10 26.481 26.487 26.464 26.475 26.506 26.524
4/19/2018 05:00 to 4:10 26.538 26.536 26.526 26.533 26.537 26.544
4/19/2018 04:00 to 3:10 26.557 26.578 26.553 26.520 26.493 26.476
4/19/2018 03:00 to 2:10 26.487 26.506 26.509 26.544 26.509 26.548
4/19/2018 02:00 to 1:10 26.576 26.525 26.546 26.566 26.571 26.588
4/19/2018 01:00 to 0:10 26.611 26.596 26.651 26.673 26.583 26.622

 

 

 

Conductivity [S/m]     6 entries per hour
Showing data from 1/11/2018 (04:00:00 Z) to 1/10/2018 (00:00:01 Z)
Previous Next [ Day | 3-Days | 7-Days ]
First Last
Prev [ Day | 3-Days | 7-Days ] Next
First Last

Start Time:     :
End Time:     :     
Time (in GMT) :00 :50 :40 :30 :20 :10
Previous Next [ Day | 3-Days | 7-Days ]
First Last
Prev [ Day | 3-Days | 7-Days ] Next
First Last


123 => good data
MM => data is determined as missing
-- => data not received/configured
Back to Top Back to Top
1/11/2018 04:00 to 3:10 4.93881 4.94088 4.94205 4.94203 4.94314 4.94401
1/11/2018 03:00 to 2:10 4.94399 4.94431 4.94417 4.94329 4.94473 4.94408
1/11/2018 02:00 to 1:10 4.94691 4.94672 4.94497 4.94487 4.94592 4.94817
1/11/2018 01:00 to 0:10 4.95189 4.94886 4.95319 4.95648 4.96001 4.96432
1/11/2018 00:00 to 23:10 4.96488 4.96880 4.97263 4.97364 4.97677 4.98538
1/10/2018 23:00 to 22:10 4.98992 4.99395 4.99151 4.99665 4.99036 4.98802
1/10/2018 22:00 to 21:10 4.97966 4.99159 5.00760 4.99997 4.99210 4.97908
1/10/2018 21:00 to 20:10 4.98022 4.99134 5.01094 5.00208 5.00442 5.00643
1/10/2018 20:00 to 19:10 4.99660 4.98656 5.00136 5.00741 4.97970 4.98879
1/10/2018 19:00 to 18:10 4.98317 4.99293 4.97309 4.97474 4.97871 4.97204
1/10/2018 18:00 to 17:10 4.97086 4.96045 4.95606 4.95004 4.94879 4.94190
1/10/2018 17:00 to 16:10 4.93788 4.93561 4.93175 4.92610 4.92425 4.92084
1/10/2018 16:00 to 15:10 4.92133 4.91851 4.91750 4.91629 4.91377 4.91355
1/10/2018 15:00 to 14:10 4.91145 4.90914 4.90569 4.90724 4.90862 4.90850
1/10/2018 14:00 to 13:10 4.91109 4.90954 4.90937 4.90977 4.90623 4.90648
1/10/2018 13:00 to 12:10 4.90703 4.91190 4.91225 4.91471 4.91663 4.91833
1/10/2018 12:00 to 11:10 4.92136 4.92063 4.91824 4.92263 4.92810 4.92952
1/10/2018 11:00 to 10:10 4.93005 4.93164 4.93878 4.94357 4.94390 4.94674
1/10/2018 10:00 to 9:10 4.94805 4.95078 4.94539 4.95130 4.95272 4.95245
1/10/2018 09:00 to 8:10 4.95173 4.94754 4.95486 4.95544 4.94962 4.94633
1/10/2018 08:00 to 7:10 -- -- -- -- -- --
1/10/2018 07:00 to 6:10 4.95138 4.94952 4.95329 4.95509 4.95581 4.95248
1/10/2018 06:00 to 5:10 4.95794 4.95421 4.95727 4.95645 4.95344 4.94125
1/10/2018 05:00 to 4:10 4.93154 4.94918 4.95971 4.95392 4.95301 4.96057
1/10/2018 04:00 to 3:10 4.96429 4.96669 4.96987 4.97124 4.97240 4.97236
1/10/2018 03:00 to 2:10 4.96225 4.96480 4.96659 4.97213 4.97412 4.97891
1/10/2018 02:00 to 1:10 4.98166 4.98231 4.98448 4.98225 4.98502 4.98388
1/10/2018 01:00 to 0:10 4.98345 4.98590 4.98988 4.98214 4.98800 4.98648

 

 

 

Salinity [psu]     6 entries per hour
Showing data from 1/11/2018 (04:00:00 Z) to 1/10/2018 (00:00:01 Z)
Previous Next [ Day | 3-Days | 7-Days ]
First Last
Prev [ Day | 3-Days | 7-Days ] Next
First Last

Start Time:     :
End Time:     :     
Time (in GMT) :00 :50 :40 :30 :20 :10
Previous Next [ Day | 3-Days | 7-Days ]
First Last
Prev [ Day | 3-Days | 7-Days ] Next
First Last


123 => good data
MM => data is determined as missing
-- => data not received/configured
Back to Top Back to Top
1/11/2018 04:00 to 3:10 34.78 34.78 34.79 34.78 34.78 34.78
1/11/2018 03:00 to 2:10 34.78 34.79 34.79 34.78 34.78 34.78
1/11/2018 02:00 to 1:10 34.78 34.79 34.78 34.78 34.78 34.78
1/11/2018 01:00 to 0:10 34.79 34.78 34.78 34.78 34.78 34.79
1/11/2018 00:00 to 23:10 34.78 34.78 34.78 34.77 34.76 34.75
1/10/2018 23:00 to 22:10 34.78 34.79 34.77 34.79 34.79 34.78
1/10/2018 22:00 to 21:10 34.77 34.76 34.79 34.83 34.85 34.81
1/10/2018 21:00 to 20:10 34.75 34.79 34.82 34.81 34.79 34.83
1/10/2018 20:00 to 19:10 34.80 34.80 34.83 34.81 34.74 34.82
1/10/2018 19:00 to 18:10 34.76 34.86 34.79 34.78 34.81 34.82
1/10/2018 18:00 to 17:10 34.81 34.80 34.78 34.80 34.81 34.78
1/10/2018 17:00 to 16:10 34.79 34.79 34.79 34.80 34.79 34.78
1/10/2018 16:00 to 15:10 34.79 34.79 34.79 34.79 34.78 34.79
1/10/2018 15:00 to 14:10 34.79 34.79 34.78 34.78 34.78 34.78
1/10/2018 14:00 to 13:10 34.78 34.79 34.79 34.79 34.78 34.78
1/10/2018 13:00 to 12:10 34.77 34.78 34.77 34.78 34.77 34.77
1/10/2018 12:00 to 11:10 34.78 34.78 34.77 34.77 34.77 34.78
1/10/2018 11:00 to 10:10 34.77 34.76 34.77 34.77 34.77 34.78
1/10/2018 10:00 to 9:10 34.77 34.77 34.77 34.77 34.78 34.77
1/10/2018 09:00 to 8:10 34.79 34.77 34.79 34.79 34.78 34.79
1/10/2018 08:00 to 7:10 -- -- -- -- -- --
1/10/2018 07:00 to 6:10 34.77 34.77 34.77 34.77 34.79 34.77
1/10/2018 06:00 to 5:10 34.76 34.79 34.79 34.77 34.80 34.80
1/10/2018 05:00 to 4:10 34.76 34.76 34.82 34.77 34.77 34.78
1/10/2018 04:00 to 3:10 34.78 34.77 34.78 34.78 34.78 34.79
1/10/2018 03:00 to 2:10 34.78 34.78 34.77 34.78 34.78 34.78
1/10/2018 02:00 to 1:10 34.78 34.78 34.78 34.77 34.79 34.77
1/10/2018 01:00 to 0:10 34.78 34.78 34.82 34.76 34.79 34.77